Hauptseite
METAR-TAF:

METAR-TAF

Flughäfen :

Flughafen Mwanza Lake Victoria International

Mwanza, Tansania

Breite: 02-28S, Länge: 032-55E, Höhe: 1139 m

Beobachtung

Neuester Wetterbericht von vor 9 Stunden und 53 Minuten, um 19:00 UTC
Wind 8 kt aus Süd/Südost
Temperatur 23°C
Luftfeuchtigkeit 41%
Luftdruck 1019 hPa
Sichtweite 10 km oder mehr
Leicht bewölkt in der Höhe von 2000 ft

METAR: HTMW 241900Z 15008KT 9999 FEW020 23/09 Q1019 NOSIG

Zeit: 07:53 (04:53 UTC)

Prognose

Neuester Wetterbericht von vor 5 Stunden und 53 Minuten, um 23:00 UTC
Gültige Prognose vom 25 um 00 UTC bis 25 um 24 UTC
Wind 10 kt aus Südost
Sichtweite 10 km oder mehr
keine Wolken unter 1500 m und keine Kumulonimbus oder Gewitterwolken

TAF: HTMW 242300Z 2500/2524 14010KT CAVOK

Wetterbeobachtungen und Prognosen von mehr als 4000 Flughäfen (METAR und TAF Bericht).

Die verfügbaren Stationen werden durch gelbe und rote Markierungen auf der Karte dargestellt.

Führen Sie die Maus auf sie, um den Namen der Station zu sehen.

Darauf klicken, um die Beobachtung von Wetterbeobachtungen und Prognosen zu sehen.

Um die Karte zu ändern : klicken Sie auf den grünen Tasten mit einem schwarzen Kreuz Zum Vergrößern, auf den grünen Button mit einem Gedankenstrich zu verkleinern, oder auf die grünen Pfeile für benachbarte Karten.


METAR-TAF: